| time (UTC) | temp C | wind direction | speed KPH | gust KPH | rain 1hr cm | rain 24hr cm | rain mn cm | humidity % | barometer mb |
| 20260510184554 | 17 | 170 | 8.0 | 8.0 | 0.00 | 0.00 | 0.00 | 67 | 1009.0 |
| 20260510181551 | 17 | 90 | 8.0 | 8.0 | 0.00 | 0.00 | 0.00 | 67 | 1008.0 |
| 20260510174549 | 17 | 90 | 8.0 | 8.0 | 0.00 | 0.00 | 0.00 | 64 | 1009.0 |
| 20260510171548 | 17 | 90 | 8.0 | 8.0 | 0.00 | 0.00 | 0.00 | 60 | 1008.0 |
| 20260510164545 | 18 | 90 | 9.7 | 9.7 | 0.00 | 0.00 | 0.00 | 57 | 1008.0 |
| 20260510161543 | 17 | 70 | 8.0 | 8.0 | 0.00 | 0.00 | 0.00 | 56 | 1008.0 |
| 20260510154542 | 16 | 130 | 12.9 | 12.9 | 0.00 | 0.00 | 0.00 | 55 | 1008.0 |
| 20260510151538 | 16 | 130 | 12.9 | 12.9 | 0.00 | 0.00 | 0.00 | 57 | 1009.0 |
| 20260510144537 | 15 | 110 | 12.9 | 12.9 | 0.00 | 0.00 | 0.00 | 61 | 1009.0 |
| 20260510141535 | 12 | 60 | 12.9 | 12.9 | 0.00 | 0.00 | 0.00 | 68 | 1010.0 |
| 20260510134532 | 12 | 250 | 9.7 | 9.7 | 0.00 | 0.00 | 0.00 | 72 | 1010.0 |
| 20260510131529 | 16 | 230 | 24.1 | 24.1 | 0.00 | 0.00 | 0.00 | 66 | 1010.0 |
| 20260510124528 | 20 | 250 | 8.0 | 8.0 | 0.00 | 0.00 | 0.00 | 39 | 1008.0 |
| 20260510121525 | 20 | 81 | 8.0 | 8.0 | 0.00 | 0.00 | 0.00 | 39 | 1009.0 |
| 20260510114523 | 20 | 0 | 8.0 | 8.0 | 0.00 | 0.00 | 0.00 | 39 | 1009.0 |
| 20260510111522 | 20 | 0 | 8.0 | 8.0 | 0.00 | 0.00 | 0.00 | 38 | 1009.0 |
| 20260510104519 | 20 | 0 | 8.0 | 8.0 | 0.00 | 0.00 | 0.00 | 41 | 1009.0 |
| 20260510101518 | 20 | 323 | 6.4 | 6.4 | 0.00 | 0.00 | 0.00 | 43 | 1010.0 |
| 20260510094515 | 18 | 338 | 12.9 | 12.9 | 0.00 | 0.00 | 0.00 | 45 | 1010.0 |
| 20260510091513 | 17 | 338 | 12.9 | 12.9 | 0.00 | 0.00 | 0.00 | 47 | 1010.0 |
| 20260510084511 | 17 | 250 | 12.9 | 12.9 | 0.00 | 0.00 | 0.00 | 48 | 1010.0 |
| 20260510081508 | 17 | 250 | 8.0 | 8.0 | 0.00 | 0.00 | 0.00 | 48 | 1009.0 |
| 20260510074507 | 17 | 329 | 8.0 | 8.0 | 0.00 | 0.00 | 0.00 | 50 | 1009.0 |
| 20260510071604 | 15 | 240 | 8.0 | 8.0 | 0.00 | 0.00 | 0.00 | 53 | 1009.0 |
| 20260510064603 | 15 | 240 | 8.0 | 8.0 | 0.00 | 0.00 | 0.00 | 55 | 1009.0 |
| 20260510061601 | 14 | 150 | 12.9 | 12.9 | 0.00 | 0.00 | 0.00 | 59 | 1009.0 |
| 20260510054558 | 14 | 150 | 12.9 | 12.9 | 0.00 | 0.00 | 0.00 | 64 | 1008.0 |
| 20260510051555 | 15 | 150 | 12.9 | 12.9 | 0.00 | 0.00 | 0.00 | 62 | 1008.0 |
| 20260510044553 | 15 | 150 | 12.9 | 12.9 | 0.00 | 0.00 | 0.00 | 64 | 1008.0 |
| 20260510041552 | 15 | 150 | 12.9 | 12.9 | 0.00 | 0.00 | 0.00 | 62 | 1008.0 |
| 20260510034550 | 15 | 150 | 12.9 | 12.9 | 0.00 | 0.00 | 0.00 | 61 | 1008.0 |
| 20260510031547 | 15 | 150 | 12.9 | 12.9 | 0.00 | 0.00 | 0.00 | 61 | 1008.0 |
| 20260510024545 | 15 | 150 | 12.9 | 12.9 | 0.00 | 0.00 | 0.00 | 63 | 1008.0 |
| 20260510021543 | 15 | 150 | 14.5 | 14.5 | 0.00 | 0.00 | 0.00 | 61 | 1008.0 |
| 20260510014541 | 15 | 150 | 14.5 | 14.5 | 0.00 | 0.00 | 0.00 | 62 | 1009.0 |
| 20260510011538 | 13 | 200 | 17.7 | 17.7 | 0.00 | 0.00 | 0.00 | 61 | 1008.0 |
| 20260510004536 | 13 | 200 | 17.7 | 17.7 | 0.00 | 0.00 | 0.00 | 63 | 1008.0 |
| 20260510001535 | 13 | 200 | 17.7 | 17.7 | 0.00 | 0.00 | 0.00 | 67 | 1008.0 |
| 20260509234533 | 14 | 200 | 17.7 | 17.7 | 0.00 | 0.00 | 0.00 | 74 | 1009.0 |
| 20260509231530 | 15 | 200 | 17.7 | 17.7 | 0.00 | 0.00 | 0.00 | 79 | 1008.0 |
| 20260509224528 | 15 | 200 | 17.7 | 17.7 | 0.00 | 0.00 | 0.00 | 78 | 1008.0 |
| 20260509221526 | 15 | 200 | 17.7 | 17.7 | 0.00 | 0.00 | 0.00 | 78 | 1008.0 |
| 20260509214524 | 15 | 200 | 17.7 | 17.7 | 0.00 | 0.00 | 0.00 | 76 | 1008.0 |
| 20260509211522 | 15 | 200 | 17.7 | 17.7 | 0.00 | 0.00 | 0.00 | 77 | 1008.0 |
| 20260509204519 | 15 | 200 | 17.7 | 17.7 | 0.00 | 0.00 | 0.00 | 77 | 1008.0 |
| 20260509201517 | 16 | 200 | 17.7 | 17.7 | 0.00 | 0.00 | 0.00 | 80 | 1007.0 |
| 20260509194515 | 16 | 200 | 17.7 | 17.7 | 0.00 | 0.00 | 0.00 | 76 | 1007.0 |
| 20260509191513 | 15 | 200 | 17.7 | 17.7 | 0.00 | 0.00 | 0.00 | 69 | 1007.0 |